Time;durP1;ratioP1;P1;durP2;ratioP2;P2;SDS_P1;SDS_P2;PMS_P1;PMS_P2;Temp;Humidity;BMP_temperature;BMP_pressure;BME280_temperature;BME280_humidity;BME280_pressure;Samples;Min_cycle;Max_cycle;Signal;HPM_P1;HPM_P2
2023/10/24 00:00:50;;;;;;;;;;;10.40;99.90;;;;;;5111325;28;19930;-32
2023/10/24 00:03:16;;;;;;;;;;;10.40;99.90;;;;;;5111777;28;19981;-32
2023/10/24 00:05:44;;;;;;;;;;;10.40;99.90;;;;;;5093138;28;20031;-32
2023/10/24 00:08:11;;;;;;;;;;;10.40;99.90;;;;;;5111828;28;20612;-32
2023/10/24 00:10:38;;;;;;;;;;;10.40;99.90;;;;;;5112623;28;20328;-32
2023/10/24 00:13:05;;;;;;;;;;;10.40;99.90;;;;;;5093933;28;19958;-32
2023/10/24 00:15:31;;;;;;;;;;;10.40;99.90;;;;;;5090512;28;19928;-33
2023/10/24 00:17:58;;;;;;;;;;;10.40;99.90;;;;;;5094060;28;19924;-32
2023/10/24 00:20:25;;;;;;;;;;;10.40;99.90;;;;;;5093773;28;19974;-32
2023/10/24 00:22:52;;;;;;;;;;;10.40;99.90;;;;;;5092653;28;20014;-33
2023/10/24 00:25:19;;;;;;;;;;;10.40;99.90;;;;;;5109615;28;20694;-33
2023/10/24 00:27:46;;;;;;;;;;;10.40;99.90;;;;;;5093296;28;19961;-32
2023/10/24 00:30:14;;;;;;;;;;;10.40;99.90;;;;;;5110367;28;20022;-32
2023/10/24 00:32:40;;;;;;;;;;;10.40;99.90;;;;;;5092530;28;19955;-33
2023/10/24 00:35:07;;;;;;;;;;;10.40;99.90;;;;;;5093679;28;19962;-33
2023/10/24 00:37:34;;;;;;;;;;;10.40;99.90;;;;;;5111039;28;20014;-32
2023/10/24 00:40:04;;;;;;;;;;;10.40;99.90;;;;;;5093574;28;19931;-32
2023/10/24 00:42:31;;;;;;;;;;;10.40;99.90;;;;;;5111307;28;19923;-32
2023/10/24 00:44:58;;;;;;;;;;;10.50;99.90;;;;;;5112559;28;19924;-33
2023/10/24 00:47:24;;;;;;;;;;;10.50;99.90;;;;;;4495377;28;15755075;-33
2023/10/24 00:49:51;;;;;;;;;;;10.40;99.90;;;;;;5090299;28;19932;-33
2023/10/24 00:52:18;;;;;;;;;;;10.50;99.90;;;;;;5100857;28;19961;-33
2023/10/24 00:54:45;;;;;;;;;;;10.50;99.90;;;;;;5093285;28;19971;-33
2023/10/24 00:57:13;;;;;;;;;;;10.50;99.90;;;;;;5092561;28;19977;-33
2023/10/24 00:59:39;;;;;;;;;;;10.50;99.90;;;;;;5111296;28;19923;-33
2023/10/24 01:02:06;;;;;;;;;;;10.50;99.90;;;;;;5092013;28;19958;-31
2023/10/24 01:04:33;;;;;;;;;;;10.50;99.90;;;;;;5094177;28;19923;-32
2023/10/24 01:06:59;;;;;;;;;;;10.50;99.90;;;;;;5111535;28;19965;-33
2023/10/24 01:09:26;;;;;;;;;;;10.50;99.90;;;;;;5093413;28;19978;-32
2023/10/24 01:11:53;;;;;;;;;;;10.50;99.90;;;;;;5109954;28;19957;-32
2023/10/24 01:14:21;;;;;;;;;;;10.50;99.90;;;;;;5093733;28;19924;-33
2023/10/24 01:16:48;;;;;;;;;;;10.50;99.90;;;;;;5094407;28;19924;-33
2023/10/24 01:19:14;;;;;;;;;;;10.50;99.90;;;;;;5090270;28;19927;-33
2023/10/24 01:21:43;;;;;;;;;;;10.60;99.90;;;;;;5088143;28;20158;-32
2023/10/24 01:24:10;;;;;;;;;;;10.50;99.90;;;;;;5092299;28;20363;-32
2023/10/24 01:26:37;;;;;;;;;;;10.50;99.90;;;;;;5094154;28;20372;-33
2023/10/24 01:29:03;;;;;;;;;;;10.60;99.90;;;;;;5092578;28;19924;-32
2023/10/24 01:31:30;;;;;;;;;;;10.60;99.90;;;;;;5101642;28;20076;-32
2023/10/24 01:33:56;;;;;;;;;;;10.60;99.90;;;;;;5098181;28;19928;-32
2023/10/24 01:36:23;;;;;;;;;;;10.60;99.90;;;;;;5108786;28;19946;-32
2023/10/24 01:38:51;;;;;;;;;;;10.60;99.90;;;;;;5107703;28;19977;-33
2023/10/24 01:41:18;;;;;;;;;;;10.60;99.90;;;;;;5084430;28;19963;-32
2023/10/24 01:43:44;;;;;;;;;;;10.60;99.90;;;;;;5116094;28;19980;-32
2023/10/24 01:46:11;;;;;;;;;;;10.70;99.90;;;;;;5115291;28;19923;-32
2023/10/24 01:48:38;;;;;;;;;;;10.70;99.90;;;;;;5113504;28;19924;-32
2023/10/24 01:51:04;;;;;;;;;;;10.70;99.90;;;;;;5116049;28;19928;-32
2023/10/24 01:53:31;;;;;;;;;;;10.70;99.90;;;;;;5115921;28;20387;-33
2023/10/24 01:55:59;;;;;;;;;;;10.70;99.90;;;;;;5098326;28;19980;-32
2023/10/24 01:58:25;;;;;;;;;;;10.70;99.90;;;;;;5116794;28;20348;-32
2023/10/24 02:00:52;;;;;;;;;;;10.70;99.90;;;;;;5116346;28;19969;-32
2023/10/24 02:03:19;;;;;;;;;;;10.70;99.90;;;;;;5115690;28;19947;-31
2023/10/24 02:05:45;;;;;;;;;;;10.70;99.90;;;;;;5096505;28;19924;-31
2023/10/24 02:08:12;;;;;;;;;;;10.70;99.90;;;;;;5098104;28;20388;-31
2023/10/24 02:10:39;;;;;;;;;;;10.80;99.90;;;;;;5097575;28;19924;-31
2023/10/24 02:13:07;;;;;;;;;;;10.70;99.90;;;;;;5097689;28;20421;-31
2023/10/24 02:15:33;;;;;;;;;;;10.80;99.90;;;;;;5114674;28;19954;-31
2023/10/24 02:18:00;;;;;;;;;;;10.80;99.90;;;;;;5097727;28;19924;-31
2023/10/24 02:20:27;;;;;;;;;;;10.80;99.90;;;;;;5115028;28;19923;-32
2023/10/24 02:22:53;;;;;;;;;;;10.80;99.90;;;;;;5097714;28;19977;-31
2023/10/24 02:25:20;;;;;;;;;;;10.90;99.90;;;;;;5078078;28;19928;-32
2023/10/24 02:27:47;;;;;;;;;;;10.90;99.90;;;;;;5077854;28;19927;-31
2023/10/24 02:30:15;;;;;;;;;;;10.90;99.90;;;;;;5094144;28;19923;-33
2023/10/24 02:32:41;;;;;;;;;;;10.90;99.90;;;;;;5097627;28;19924;-31
2023/10/24 02:35:08;;;;;;;;;;;10.90;99.90;;;;;;5097940;28;19981;-32
2023/10/24 02:37:34;;;;;;;;;;;10.90;99.90;;;;;;5097172;28;20289;-31
2023/10/24 02:40:01;;;;;;;;;;;10.90;99.90;;;;;;5115724;28;19924;-31
2023/10/24 02:42:28;;;;;;;;;;;10.90;99.90;;;;;;5112046;28;19989;-32
2023/10/24 02:44:54;;;;;;;;;;;11.00;99.90;;;;;;5114951;28;19931;-32
2023/10/24 02:47:22;;;;;;;;;;;10.90;99.90;;;;;;5115428;28;19928;-31
2023/10/24 02:49:49;;;;;;;;;;;10.90;99.90;;;;;;5115147;28;19923;-31
2023/10/24 02:52:16;;;;;;;;;;;10.90;99.90;;;;;;5096674;28;20368;-32
2023/10/24 02:54:42;;;;;;;;;;;11.00;99.90;;;;;;5097168;28;19980;-31
2023/10/24 02:57:09;;;;;;;;;;;11.00;99.90;;;;;;5114791;28;19982;-31
2023/10/24 02:59:36;;;;;;;;;;;10.90;99.90;;;;;;5095087;28;20065;-31
2023/10/24 03:02:02;;;;;;;;;;;11.10;99.90;;;;;;5096316;28;19984;-31
2023/10/24 03:04:30;;;;;;;;;;;11.00;99.90;;;;;;5096159;28;19924;-31
2023/10/24 03:06:57;;;;;;;;;;;11.00;99.90;;;;;;5095168;28;19968;-32
2023/10/24 03:09:23;;;;;;;;;;;11.00;99.90;;;;;;5095799;28;19923;-32
2023/10/24 03:11:50;;;;;;;;;;;11.00;99.90;;;;;;5113035;28;19924;-32
2023/10/24 03:14:17;;;;;;;;;;;11.00;99.90;;;;;;5114949;28;19927;-32
2023/10/24 03:16:43;;;;;;;;;;;11.00;99.90;;;;;;5113997;28;19924;-31
2023/10/24 03:19:10;;;;;;;;;;;11.00;99.90;;;;;;5096736;28;19976;-31
2023/10/24 03:21:38;;;;;;;;;;;11.00;99.90;;;;;;5096229;28;19984;-31
2023/10/24 03:24:05;;;;;;;;;;;11.10;99.90;;;;;;5095705;28;20333;-32
2023/10/24 03:26:32;;;;;;;;;;;11.10;99.90;;;;;;5114145;28;20478;-31
2023/10/24 03:28:58;;;;;;;;;;;11.00;99.90;;;;;;5096929;28;20019;-33
2023/10/24 03:31:25;;;;;;;;;;;11.10;99.90;;;;;;5095263;28;19923;-31
2023/10/24 03:33:51;;;;;;;;;;;11.10;99.90;;;;;;5095605;28;19931;-33
2023/10/24 03:36:18;;;;;;;;;;;11.10;99.90;;;;;;5085018;28;19973;-32
2023/10/24 03:38:46;;;;;;;;;;;11.10;99.90;;;;;;5094834;28;20411;-32
2023/10/24 03:41:13;;;;;;;;;;;11.10;99.90;;;;;;5114965;28;19971;-32
2023/10/24 03:43:40;;;;;;;;;;;11.10;99.90;;;;;;5088413;28;19979;-32
2023/10/24 03:46:06;;;;;;;;;;;11.10;99.90;;;;;;5103914;28;19928;-31
2023/10/24 03:48:33;;;;;;;;;;;11.10;99.90;;;;;;5091849;28;20344;-32
2023/10/24 03:51:00;;;;;;;;;;;11.10;99.90;;;;;;5094304;28;19938;-32
2023/10/24 03:53:27;;;;;;;;;;;11.10;99.90;;;;;;5109873;28;19931;-31
2023/10/24 03:55:59;;;;;;;;;;;11.20;99.90;;;;;;5095304;28;19970;-32
2023/10/24 03:58:26;;;;;;;;;;;11.20;99.90;;;;;;5094509;28;19930;-32
2023/10/24 04:00:52;;;;;;;;;;;11.20;99.90;;;;;;5094514;28;19967;-31
2023/10/24 04:03:19;;;;;;;;;;;11.20;99.90;;;;;;5094951;28;19962;-32
2023/10/24 04:05:46;;;;;;;;;;;11.20;99.90;;;;;;5094053;28;19973;-32
2023/10/24 04:08:13;;;;;;;;;;;11.20;99.90;;;;;;5089572;28;19981;-32
2023/10/24 04:10:39;;;;;;;;;;;11.20;99.90;;;;;;5089722;28;20379;-32
2023/10/24 04:13:07;;;;;;;;;;;11.20;99.90;;;;;;5088044;28;20043;-31
2023/10/24 04:15:34;;;;;;;;;;;11.20;99.90;;;;;;5083833;28;19977;-31
2023/10/24 04:18:00;;;;;;;;;;;11.30;99.90;;;;;;5094438;28;19971;-32
2023/10/24 04:20:27;;;;;;;;;;;11.30;99.90;;;;;;5094608;28;19928;-31
2023/10/24 04:22:54;;;;;;;;;;;11.40;99.90;;;;;;5092825;28;19967;-32
2023/10/24 04:25:20;;;;;;;;;;;11.40;99.90;;;;;;5093224;28;19924;-31
2023/10/24 04:27:47;;;;;;;;;;;11.30;99.90;;;;;;5093564;28;19965;-32
2023/10/24 04:30:15;;;;;;;;;;;11.40;99.90;;;;;;5109693;28;19927;-32
2023/10/24 04:32:42;;;;;;;;;;;11.40;99.90;;;;;;5086668;28;19927;-31
2023/10/24 04:35:09;;;;;;;;;;;11.50;99.90;;;;;;5092641;28;20110;-31
2023/10/24 04:37:36;;;;;;;;;;;11.50;99.90;;;;;;5092896;28;20379;-31
2023/10/24 04:40:03;;;;;;;;;;;11.50;99.90;;;;;;5094835;28;20004;-31
2023/10/24 04:42:29;;;;;;;;;;;11.50;99.90;;;;;;5091265;28;19984;-31
2023/10/24 04:44:56;;;;;;;;;;;11.50;99.90;;;;;;5083811;28;19924;-32
2023/10/24 04:47:25;;;;;;;;;;;11.50;99.90;;;;;;5077890;28;20007;-32
2023/10/24 04:49:51;;;;;;;;;;;11.50;99.90;;;;;;5093904;28;19939;-32
2023/10/24 04:52:18;;;;;;;;;;;11.50;99.90;;;;;;5094803;28;19979;-32
2023/10/24 04:54:45;;;;;;;;;;;11.50;99.90;;;;;;5109815;28;20046;-32
2023/10/24 04:57:11;;;;;;;;;;;11.50;99.90;;;;;;5111891;28;19969;-31
2023/10/24 04:59:38;;;;;;;;;;;11.60;99.90;;;;;;5111087;28;19967;-31
2023/10/24 05:02:05;;;;;;;;;;;11.60;99.90;;;;;;5094137;28;20014;-30
2023/10/24 05:04:33;;;;;;;;;;;11.50;99.90;;;;;;5087938;28;19928;-32
2023/10/24 05:06:59;;;;;;;;;;;11.50;99.90;;;;;;5094847;28;20051;-32
2023/10/24 05:09:26;;;;;;;;;;;11.50;99.90;;;;;;5090253;28;19985;-32
2023/10/24 05:11:53;;;;;;;;;;;11.50;99.90;;;;;;5085532;28;19947;-32
2023/10/24 05:14:20;;;;;;;;;;;11.50;99.90;;;;;;5090179;28;20033;-33
2023/10/24 05:16:46;;;;;;;;;;;11.50;99.90;;;;;;5093818;28;19927;-32
2023/10/24 05:19:13;;;;;;;;;;;11.50;99.90;;;;;;5110862;28;20406;-32
2023/10/24 05:21:41;;;;;;;;;;;11.50;99.90;;;;;;5112585;28;20017;-32
2023/10/24 05:24:08;;;;;;;;;;;11.50;99.90;;;;;;5111751;28;19973;-33
2023/10/24 05:26:34;;;;;;;;;;;11.50;99.90;;;;;;5094018;28;19928;-32
2023/10/24 05:29:01;;;;;;;;;;;11.50;99.90;;;;;;5112827;28;20050;-32
2023/10/24 05:31:28;;;;;;;;;;;11.50;99.90;;;;;;5110133;28;20361;-33
2023/10/24 05:33:54;;;;;;;;;;;11.50;99.90;;;;;;5093669;28;19924;-32
2023/10/24 05:36:21;;;;;;;;;;;11.50;99.90;;;;;;5084333;28;19928;-32
2023/10/24 05:38:49;;;;;;;;;;;11.50;99.90;;;;;;5090798;28;19924;-32
2023/10/24 05:41:16;;;;;;;;;;;11.50;99.90;;;;;;5099903;28;19924;-33
2023/10/24 05:43:42;;;;;;;;;;;11.50;99.90;;;;;;5073047;28;20189;-32
2023/10/24 05:46:09;;;;;;;;;;;11.50;99.90;;;;;;5087702;28;19931;-32
2023/10/24 05:48:38;;;;;;;;;;;11.50;99.90;;;;;;5110325;28;19951;-33
2023/10/24 05:51:05;;;;;;;;;;;11.50;99.90;;;;;;5110034;28;20482;-32
2023/10/24 05:53:31;;;;;;;;;;;11.50;99.90;;;;;;5110051;28;19971;-33
2023/10/24 05:55:59;;;;;;;;;;;11.50;99.90;;;;;;5092610;28;19924;-31
2023/10/24 05:58:26;;;;;;;;;;;11.50;99.90;;;;;;5108497;28;19928;-32
2023/10/24 06:00:52;;;;;;;;;;;11.50;99.90;;;;;;5109296;28;19969;-31
2023/10/24 06:03:19;;;;;;;;;;;11.50;99.90;;;;;;5092839;28;19969;-32
2023/10/24 06:05:46;;;;;;;;;;;11.50;99.90;;;;;;5092877;28;20379;-32
2023/10/24 06:08:13;;;;;;;;;;;11.50;99.90;;;;;;5109978;28;19942;-32
2023/10/24 06:10:40;;;;;;;;;;;11.50;99.90;;;;;;5085958;28;20329;-31
2023/10/24 06:13:08;;;;;;;;;;;11.50;99.90;;;;;;5088003;28;19958;-31
2023/10/24 06:15:34;;;;;;;;;;;11.40;99.90;;;;;;5093134;28;19962;-32
2023/10/24 06:18:01;;;;;;;;;;;11.40;99.90;;;;;;5086923;28;19924;-33
2023/10/24 06:20:28;;;;;;;;;;;11.40;99.90;;;;;;5076096;28;20457;-32
2023/10/24 06:22:54;;;;;;;;;;;11.40;99.90;;;;;;5090422;28;19924;-34
2023/10/24 06:25:21;;;;;;;;;;;11.40;99.90;;;;;;5114836;28;20333;-33
2023/10/24 06:27:48;;;;;;;;;;;11.40;99.90;;;;;;5114236;28;19946;-31
2023/10/24 06:30:16;;;;;;;;;;;11.40;99.90;;;;;;5096434;28;19962;-31
2023/10/24 06:32:43;;;;;;;;;;;11.40;99.90;;;;;;5112637;28;19954;-31
2023/10/24 06:35:09;;;;;;;;;;;11.40;99.90;;;;;;5096344;28;20029;-32
2023/10/24 06:37:36;;;;;;;;;;;11.40;99.90;;;;;;5093766;28;19954;-32
2023/10/24 06:40:03;;;;;;;;;;;11.40;99.90;;;;;;5096106;28;19958;-32
2023/10/24 06:42:30;;;;;;;;;;;11.40;99.90;;;;;;5114085;28;19928;-31
2023/10/24 06:44:56;;;;;;;;;;;11.40;99.90;;;;;;5093601;28;20427;-31
2023/10/24 06:47:24;;;;;;;;;;;11.40;99.90;;;;;;5095774;28;19979;-31
2023/10/24 06:49:51;;;;;;;;;;;11.40;99.90;;;;;;5112484;28;19924;-31
2023/10/24 06:52:17;;;;;;;;;;;11.40;99.90;;;;;;5096112;28;20032;-31
2023/10/24 06:54:44;;;;;;;;;;;11.40;99.90;;;;;;5114537;28;19932;-31
2023/10/24 06:57:11;;;;;;;;;;;11.40;99.90;;;;;;5095881;28;19971;-31
2023/10/24 06:59:37;;;;;;;;;;;11.30;99.90;;;;;;5114128;28;20370;-32
2023/10/24 07:02:04;;;;;;;;;;;11.40;99.90;;;;;;5113348;28;19924;-31
2023/10/24 07:04:32;;;;;;;;;;;11.40;99.90;;;;;;5095492;28;19965;-32
2023/10/24 07:06:59;;;;;;;;;;;11.40;99.90;;;;;;5113047;28;19953;-31
2023/10/24 07:09:25;;;;;;;;;;;11.40;99.90;;;;;;5095934;28;19995;-31
2023/10/24 07:11:52;;;;;;;;;;;11.40;99.90;;;;;;5113818;28;19928;-31
2023/10/24 07:14:18;;;;;;;;;;;11.40;99.90;;;;;;5112873;28;19962;-33
2023/10/24 07:16:45;;;;;;;;;;;11.40;99.90;;;;;;5111816;28;20009;-32
2023/10/24 07:19:12;;;;;;;;;;;11.40;99.90;;;;;;5095613;28;19962;-30
2023/10/24 07:21:40;;;;;;;;;;;11.40;99.90;;;;;;5095706;28;19962;-31
2023/10/24 07:24:07;;;;;;;;;;;11.40;99.90;;;;;;5112695;28;19924;-32
2023/10/24 07:26:33;;;;;;;;;;;11.40;99.90;;;;;;5094147;28;19969;-31
2023/10/24 07:29:00;;;;;;;;;;;11.40;99.90;;;;;;5112273;28;19927;-32
2023/10/24 07:31:27;;;;;;;;;;;11.50;99.90;;;;;;5095384;28;20464;-32
2023/10/24 07:33:53;;;;;;;;;;;11.40;99.90;;;;;;5095500;28;19924;-32
2023/10/24 07:36:20;;;;;;;;;;;11.40;99.90;;;;;;5094484;28;20010;-33
2023/10/24 07:38:48;;;;;;;;;;;11.40;99.90;;;;;;5112493;28;19984;-32
2023/10/24 07:41:15;;;;;;;;;;;11.40;99.90;;;;;;5095374;28;20361;-32
2023/10/24 07:43:42;;;;;;;;;;;11.40;99.90;;;;;;5094874;28;19997;-32
2023/10/24 07:46:08;;;;;;;;;;;11.40;99.90;;;;;;5112818;28;19932;-31
2023/10/24 07:48:35;;;;;;;;;;;11.50;99.90;;;;;;5094491;28;19931;-32
2023/10/24 07:51:02;;;;;;;;;;;11.40;99.90;;;;;;5112440;28;19923;-32
2023/10/24 07:53:29;;;;;;;;;;;11.40;99.90;;;;;;5095272;28;19931;-32
2023/10/24 07:55:57;;;;;;;;;;;11.40;99.90;;;;;;5094163;28;19924;-32
2023/10/24 07:58:23;;;;;;;;;;;11.50;99.90;;;;;;5113423;28;19969;-32
2023/10/24 08:00:50;;;;;;;;;;;11.40;99.90;;;;;;5094930;28;20299;-33
2023/10/24 08:03:16;;;;;;;;;;;11.40;99.90;;;;;;5128313;27;19976;-32
2023/10/24 08:05:43;;;;;;;;;;;11.40;99.90;;;;;;5125395;27;19974;-32
2023/10/24 08:08:10;;;;;;;;;;;11.40;99.90;;;;;;5073244;28;19928;-32
2023/10/24 08:10:37;;;;;;;;;;;11.40;99.90;;;;;;5091848;28;19924;-32
2023/10/24 08:13:05;;;;;;;;;;;11.40;99.90;;;;;;5092732;28;19923;-33
2023/10/24 08:15:32;;;;;;;;;;;11.40;99.90;;;;;;5111564;28;19924;-32
2023/10/24 08:17:59;;;;;;;;;;;11.40;99.90;;;;;;5093880;28;19924;-32
2023/10/24 08:20:26;;;;;;;;;;;11.50;99.90;;;;;;5093694;28;19928;-32
2023/10/24 08:22:53;;;;;;;;;;;11.40;99.90;;;;;;5093513;28;19931;-33
2023/10/24 08:25:19;;;;;;;;;;;11.50;99.90;;;;;;5092714;28;20020;-32
2023/10/24 08:27:46;;;;;;;;;;;11.50;99.90;;;;;;5091527;28;19988;-32
2023/10/24 08:30:14;;;;;;;;;;;11.50;99.90;;;;;;5111578;28;20306;-32
2023/10/24 08:32:41;;;;;;;;;;;11.50;99.90;;;;;;5092804;28;19993;-32
2023/10/24 08:35:08;;;;;;;;;;;11.50;99.90;;;;;;5110664;28;20013;-34
2023/10/24 08:37:35;;;;;;;;;;;11.50;99.90;;;;;;5111055;28;19990;-33
2023/10/24 08:40:01;;;;;;;;;;;11.40;99.90;;;;;;5110755;28;19928;-33
2023/10/24 08:42:29;;;;;;;;;;;11.50;99.90;;;;;;5092770;28;20040;-32
2023/10/24 08:44:56;;;;;;;;;;;11.50;99.90;;;;;;5109963;28;19954;-35
2023/10/24 08:47:24;;;;;;;;;;;11.50;99.90;;;;;;5110345;28;19930;-33
2023/10/24 08:49:50;;;;;;;;;;;11.50;99.90;;;;;;5092655;28;19977;-33
2023/10/24 08:52:17;;;;;;;;;;;11.50;99.90;;;;;;5092406;28;19924;-33
2023/10/24 08:54:44;;;;;;;;;;;11.50;99.90;;;;;;5093688;28;20437;-35
2023/10/24 08:57:11;;;;;;;;;;;11.50;99.90;;;;;;5092700;28;19971;-33
2023/10/24 08:59:38;;;;;;;;;;;11.50;99.90;;;;;;5111132;28;19961;-33
2023/10/24 09:02:04;;;;;;;;;;;11.50;99.90;;;;;;5100260;28;20371;-32
2023/10/24 09:04:34;;;;;;;;;;;11.50;99.90;;;;;;5092332;28;19967;-34
2023/10/24 09:07:01;;;;;;;;;;;11.60;99.90;;;;;;5093460;28;19931;-32
2023/10/24 09:09:28;;;;;;;;;;;11.50;99.90;;;;;;5091388;28;19924;-33
2023/10/24 09:11:56;;;;;;;;;;;11.50;99.90;;;;;;5092203;28;20483;-33
2023/10/24 09:14:23;;;;;;;;;;;11.50;99.90;;;;;;5091080;28;20003;-33
2023/10/24 09:16:53;;;;;;;;;;;11.50;99.90;;;;;;5102505;28;20315;-33
2023/10/24 09:19:20;;;;;;;;;;;11.50;99.90;;;;;;5106835;28;20035;-33
2023/10/24 09:21:48;;;;;;;;;;;11.50;99.90;;;;;;5111278;28;20287;-33
2023/10/24 09:24:15;;;;;;;;;;;11.50;99.90;;;;;;5107929;28;19984;-32
2023/10/24 09:26:42;;;;;;;;;;;11.50;99.90;;;;;;5110353;28;20019;-33
2023/10/24 09:29:09;;;;;;;;;;;11.50;99.90;;;;;;5090158;28;20355;-33
2023/10/24 09:31:35;;;;;;;;;;;11.50;99.90;;;;;;5105619;28;20023;-33
2023/10/24 09:34:02;;;;;;;;;;;11.50;99.90;;;;;;5109186;28;19924;-32
2023/10/24 09:36:29;;;;;;;;;;;11.50;99.90;;;;;;5106830;28;19924;-32
2023/10/24 09:38:57;;;;;;;;;;;11.50;99.90;;;;;;5109417;28;20318;-33
2023/10/24 09:41:23;;;;;;;;;;;11.50;99.90;;;;;;5096114;28;19993;-32
2023/10/24 09:43:50;;;;;;;;;;;11.50;99.90;;;;;;5109252;28;19927;-32
2023/10/24 09:46:17;;;;;;;;;;;11.50;99.90;;;;;;5082684;28;19924;-33
2023/10/24 09:48:44;;;;;;;;;;;11.50;99.90;;;;;;5109650;28;19935;-33
2023/10/24 09:51:11;;;;;;;;;;;11.50;99.90;;;;;;5092031;28;19980;-32
2023/10/24 09:53:37;;;;;;;;;;;11.50;99.90;;;;;;5113856;28;19924;-32
2023/10/24 09:56:05;;;;;;;;;;;11.50;99.90;;;;;;5096233;28;19923;-33
2023/10/24 09:58:34;;;;;;;;;;;11.50;99.90;;;;;;5114279;28;19960;-33
2023/10/24 10:01:01;;;;;;;;;;;11.50;99.90;;;;;;5089106;28;20383;-33
2023/10/24 10:03:27;;;;;;;;;;;11.50;99.90;;;;;;5095037;28;20016;-33
2023/10/24 10:05:54;;;;;;;;;;;11.50;99.90;;;;;;5112957;28;20408;-32
2023/10/24 10:08:21;;;;;;;;;;;11.50;99.90;;;;;;5095190;28;19927;-33
2023/10/24 10:10:47;;;;;;;;;;;11.50;99.90;;;;;;5111416;28;19967;-33
2023/10/24 10:13:16;;;;;;;;;;;11.50;99.90;;;;;;5113289;28;20023;-33
2023/10/24 10:16:03;;;;;;;;;;;11.50;99.90;;;;;;5111665;28;20061;-33
2023/10/24 10:18:42;;;;;;;;;;;11.60;99.90;;;;;;5086159;28;20049;-34
2023/10/24 10:21:11;;;;;;;;;;;11.60;99.90;;;;;;5112111;28;20399;-34
2023/10/24 10:23:46;;;;;;;;;;;11.60;99.90;;;;;;5095290;28;20018;-32
2023/10/24 10:26:15;;;;;;;;;;;11.70;99.90;;;;;;5114578;28;20012;-32
2023/10/24 10:28:57;;;;;;;;;;;11.70;99.90;;;;;;5095785;28;20018;-31
2023/10/24 10:31:31;;;;;;;;;;;11.80;99.90;;;;;;5108944;28;19969;-32
2023/10/24 10:33:58;;;;;;;;;;;11.80;99.90;;;;;;5111066;28;20007;-32
2023/10/24 10:36:25;;;;;;;;;;;11.80;99.90;;;;;;5112673;28;19923;-33
2023/10/24 10:38:54;;;;;;;;;;;11.80;99.90;;;;;;5113412;28;19932;-32
2023/10/24 10:41:45;;;;;;;;;;;11.90;99.90;;;;;;5111355;28;20448;-33
2023/10/24 10:44:36;;;;;;;;;;;11.90;99.90;;;;;;5096550;28;19931;-32
2023/10/24 10:47:04;;;;;;;;;;;12.00;99.90;;;;;;5077372;28;19930;-32
2023/10/24 10:49:38;;;;;;;;;;;12.00;99.90;;;;;;5111021;28;19924;-32
2023/10/24 10:52:05;;;;;;;;;;;12.00;99.90;;;;;;5109816;28;19958;-31
2023/10/24 10:54:33;;;;;;;;;;;12.10;99.90;;;;;;5112408;27;19924;-31
2023/10/24 10:57:02;;;;;;;;;;;12.10;99.90;;;;;;5113852;28;20391;-32
2023/10/24 10:59:33;;;;;;;;;;;12.10;99.90;;;;;;5113108;28;20012;-32
2023/10/24 11:02:03;;;;;;;;;;;12.20;99.90;;;;;;5087760;28;20284;-33
2023/10/24 11:04:31;;;;;;;;;;;12.20;99.90;;;;;;5111637;28;19963;-33
2023/10/24 11:06:59;;;;;;;;;;;12.20;99.90;;;;;;5113022;28;19934;-33
2023/10/24 11:09:27;;;;;;;;;;;12.30;99.90;;;;;;5097044;28;20341;-33
2023/10/24 11:12:08;;;;;;;;;;;12.30;99.90;;;;;;5099293;27;19923;-32
2023/10/24 11:14:35;;;;;;;;;;;12.30;99.90;;;;;;5092583;28;19973;-32
2023/10/24 11:17:02;;;;;;;;;;;12.30;99.90;;;;;;5111079;28;20352;-33
2023/10/24 11:19:29;;;;;;;;;;;12.30;99.90;;;;;;5110762;28;19961;-32
2023/10/24 11:21:57;;;;;;;;;;;12.30;99.90;;;;;;5110751;28;19930;-33
2023/10/24 11:24:24;;;;;;;;;;;12.40;99.90;;;;;;5112591;28;19970;-32
2023/10/24 11:26:55;;;;;;;;;;;12.40;99.90;;;;;;5113441;28;19986;-33
2023/10/24 11:29:22;;;;;;;;;;;12.40;99.90;;;;;;5095618;28;20326;-33
2023/10/24 11:31:48;;;;;;;;;;;12.50;99.90;;;;;;5112814;28;19923;-31
2023/10/24 11:34:15;;;;;;;;;;;12.60;99.90;;;;;;5095149;28;20384;-32
2023/10/24 11:36:42;;;;;;;;;;;12.60;99.90;;;;;;5094178;28;20295;-34
2023/10/24 11:39:13;;;;;;;;;;;12.60;99.90;;;;;;5113202;28;20367;-32
2023/10/24 11:41:40;;;;;;;;;;;12.60;99.90;;;;;;5094090;28;19943;-32
2023/10/24 11:44:07;;;;;;;;;;;12.60;99.90;;;;;;5113027;28;19928;-32
2023/10/24 11:46:34;;;;;;;;;;;12.60;99.90;;;;;;5111713;28;20014;-35
2023/10/24 11:49:00;;;;;;;;;;;12.60;99.90;;;;;;5095277;28;20023;-32
2023/10/24 11:51:29;;;;;;;;;;;12.70;99.90;;;;;;5112953;28;20021;-33
2023/10/24 11:54:02;;;;;;;;;;;12.70;99.90;;;;;;5110048;28;19989;-32
2023/10/24 11:56:30;;;;;;;;;;;12.70;99.90;;;;;;5094445;28;20371;-32
2023/10/24 11:58:57;;;;;;;;;;;12.70;99.90;;;;;;5095016;28;19963;-32
2023/10/24 12:01:23;;;;;;;;;;;12.70;99.90;;;;;;5082547;28;20341;-31
2023/10/24 12:03:50;;;;;;;;;;;12.80;99.90;;;;;;5074516;28;20455;-33
2023/10/24 12:06:17;;;;;;;;;;;12.90;99.90;;;;;;5073440;28;19981;-32
2023/10/24 12:08:44;;;;;;;;;;;13.00;99.90;;;;;;5091758;28;19927;-32
2023/10/24 12:11:11;;;;;;;;;;;13.00;99.90;;;;;;5111293;28;20383;-33
2023/10/24 12:13:39;;;;;;;;;;;13.00;99.90;;;;;;5094932;28;19967;-32
2023/10/24 12:16:06;;;;;;;;;;;13.00;99.90;;;;;;5095225;28;19973;-32
2023/10/24 12:18:32;;;;;;;;;;;13.00;99.90;;;;;;5112811;28;19962;-32
2023/10/24 12:20:59;;;;;;;;;;;13.00;99.90;;;;;;5113689;28;19927;-33
2023/10/24 12:23:26;;;;;;;;;;;12.90;99.90;;;;;;5094785;28;19930;-33
2023/10/24 12:25:53;;;;;;;;;;;13.00;99.90;;;;;;5094208;28;19930;-32
2023/10/24 12:28:19;;;;;;;;;;;12.90;99.90;;;;;;5112789;28;19924;-33
2023/10/24 12:30:47;;;;;;;;;;;12.90;99.90;;;;;;5094503;28;19923;-32
2023/10/24 12:33:14;;;;;;;;;;;12.90;99.90;;;;;;5095547;28;19924;-32
2023/10/24 12:35:41;;;;;;;;;;;12.90;99.90;;;;;;5094350;28;20019;-33
2023/10/24 12:38:07;;;;;;;;;;;12.80;99.90;;;;;;5112555;28;19969;-33
2023/10/24 12:40:37;;;;;;;;;;;12.80;99.90;;;;;;5113365;28;19927;-32
2023/10/24 12:43:04;;;;;;;;;;;12.80;99.90;;;;;;5095176;28;19924;-33
2023/10/24 12:45:31;;;;;;;;;;;12.80;99.90;;;;;;5094046;27;20488;-33
2023/10/24 12:47:59;;;;;;;;;;;12.80;99.90;;;;;;5089282;28;19924;-33
2023/10/24 12:50:26;;;;;;;;;;;12.80;99.90;;;;;;5075034;28;20012;-33
2023/10/24 12:52:54;;;;;;;;;;;12.90;99.90;;;;;;5106687;28;19976;-32
2023/10/24 12:55:21;;;;;;;;;;;12.80;99.90;;;;;;5090131;28;19964;-34
2023/10/24 12:57:48;;;;;;;;;;;12.80;99.90;;;;;;5086093;28;19923;-33
2023/10/24 13:00:15;;;;;;;;;;;12.80;99.90;;;;;;5090816;28;19963;-31
2023/10/24 13:02:42;;;;;;;;;;;12.80;99.90;;;;;;5085031;28;19980;-33
2023/10/24 13:05:10;;;;;;;;;;;12.80;99.90;;;;;;5091885;28;19972;-31
2023/10/24 13:07:36;;;;;;;;;;;12.80;99.90;;;;;;5094630;28;19930;-32
2023/10/24 13:13:15;;;;;;;;;;;12.80;99.90;;;;;;5092032;28;19924;-32
2023/10/24 13:15:42;;;;;;;;;;;12.80;99.90;;;;;;5091440;28;19994;-33
2023/10/24 13:18:08;;;;;;;;;;;12.80;99.90;;;;;;5094713;28;20414;-32
2023/10/24 13:20:36;;;;;;;;;;;12.80;99.90;;;;;;5091417;28;19981;-31
2023/10/24 13:23:03;;;;;;;;;;;12.80;99.90;;;;;;5094800;28;19969;-32
2023/10/24 13:25:29;;;;;;;;;;;12.80;99.90;;;;;;5094220;28;20009;-32
2023/10/24 13:27:56;;;;;;;;;;;12.80;99.90;;;;;;5116273;28;20375;-32
2023/10/24 13:30:23;;;;;;;;;;;12.80;99.90;;;;;;5093781;28;20002;-32
2023/10/24 13:32:49;;;;;;;;;;;12.80;99.90;;;;;;5114300;28;19959;-32
2023/10/24 13:35:16;;;;;;;;;;;12.80;99.90;;;;;;5109797;28;20300;-32
2023/10/24 13:37:44;;;;;;;;;;;12.80;99.90;;;;;;5098265;28;19972;-32
2023/10/24 13:40:11;;;;;;;;;;;12.80;99.90;;;;;;5095846;28;20380;-32
2023/10/24 13:42:37;;;;;;;;;;;12.80;99.90;;;;;;5092969;27;19923;-32
2023/10/24 13:45:04;;;;;;;;;;;12.90;99.90;;;;;;5093985;28;19923;-32
2023/10/24 13:47:31;;;;;;;;;;;12.90;99.90;;;;;;5093958;28;19985;-33
2023/10/24 13:49:58;;;;;;;;;;;12.90;99.90;;;;;;5096970;28;19961;-33
2023/10/24 13:52:24;;;;;;;;;;;12.90;99.90;;;;;;5079654;28;19970;-33
2023/10/24 13:54:52;;;;;;;;;;;12.90;99.90;;;;;;5106774;28;20009;-33
2023/10/24 13:57:19;;;;;;;;;;;12.90;99.90;;;;;;5111067;27;19992;-32
2023/10/24 13:59:46;;;;;;;;;;;12.90;99.90;;;;;;5095145;28;19930;-31
2023/10/24 14:02:12;;;;;;;;;;;12.90;99.90;;;;;;5112942;28;19924;-32
2023/10/24 14:04:39;;;;;;;;;;;12.90;99.90;;;;;;5096075;28;20011;-33
2023/10/24 14:07:06;;;;;;;;;;;12.90;99.90;;;;;;5115415;28;19985;-32
2023/10/24 14:09:33;;;;;;;;;;;12.90;99.90;;;;;;5098406;28;19924;-32
2023/10/24 14:12:01;;;;;;;;;;;12.90;99.90;;;;;;5097277;28;20028;-31
2023/10/24 14:14:28;;;;;;;;;;;12.90;99.90;;;;;;5116403;28;19931;-32
2023/10/24 14:16:55;;;;;;;;;;;12.90;99.90;;;;;;5097092;27;19958;-34
2023/10/24 14:19:22;;;;;;;;;;;12.90;99.90;;;;;;5101218;28;20357;-32